Погода Мачана 2 недели

Пензенская область, Россия

27 мая-09 июня
  • 27мая
    Сегодня
    +8°
    +21°
    Ясно и безоблачно
    ВремяПогодаТемператураВлажностьДавлениеВетер, м/сВероятность осадков
    00:00Ясно и безоблачно+14°C73 %751 мм1.4 м/с2 %
    03:00Практически безоблачно+12°C62 %752 мм1.4 м/с2 %
    06:00Ясно и безоблачно+13°C57 %753 мм1.4 м/с2 %
    09:00Ясно и безоблачно+18°C42 %754 мм2.7 м/с2 %
    12:00Ясно и безоблачно+20°C31 %754 мм2.7 м/с2 %
    15:00Ясно и безоблачно+21°C29 %754 мм2.5 м/с2 %
    18:00Ясно и безоблачно+20°C33 %753 мм2.0 м/с2 %
    21:00Ясно и безоблачно+14°C45 %754 мм0.8 м/с2 %
  • 28мая
    Вторник
    +9°
    +24°
    Ясно и безоблачно
    ВремяПогодаТемператураВлажностьДавлениеВетер, м/сВероятность осадков
    00:00Ясно и безоблачно+11°C56 %754 мм0.6 м/с2 %
    03:00Ясно и безоблачно+9°C63 %754 мм0.5 м/с2 %
    06:00Ясно и безоблачно+11°C58 %754 мм0.8 м/с2 %
    09:00Ясно и безоблачно+18°C38 %754 мм1.8 м/с2 %
    12:00Ясно и безоблачно+21°C32 %754 мм1.8 м/с2 %
    15:00Ясно и безоблачно+23°C30 %752 мм1.6 м/с2 %
    18:00Ясно и безоблачно+23°C31 %751 мм1.6 м/с2 %
    21:00Ясно и безоблачно+16°C46 %750 мм0.0 м/с2 %
  • 29мая
    Среда
    +12°
    +25°
    Ясно и безоблачно
    ВремяПогодаТемператураВлажностьДавлениеВетер, м/сВероятность осадков
    00:00Ясно и безоблачно+13°C63 %750 мм0.0 м/с2 %
    03:00Ясно и безоблачно+10°C73 %750 мм0.1 м/с2 %
    06:00Ясно и безоблачно+14°C58 %749 мм0.4 м/с2 %
    09:00Ясно и безоблачно+20°C38 %750 мм1.5 м/с2 %
    12:00Ясно и безоблачно+24°C31 %749 мм1.6 м/с2 %
    15:00Ясно и безоблачно+25°C28 %748 мм1.5 м/с2 %
    18:00Ясно и безоблачно+25°C30 %747 мм1.5 м/с2 %
    21:00Ясно и безоблачно+19°C40 %746 мм0.0 м/с2 %
  • 30мая
    Четверг
    +14°
    +28°
    Ясно и безоблачно
    ВремяПогодаТемператураВлажностьДавлениеВетер, м/сВероятность осадков
    00:00Ясно и безоблачно+15°C57 %746 мм0.0 м/с2 %
    03:00Ясно и безоблачно+13°C57 %746 мм0.0 м/с2 %
    06:00Ясно и безоблачно+16°C64 %746 мм0.3 м/с2 %
    09:00Ясно и безоблачно+23°C35 %746 мм1.4 м/с2 %
    12:00Ясно и безоблачно+25°C26 %746 мм1.6 м/с2 %
    15:00Ясно и безоблачно+26°C25 %745 мм1.4 м/с2 %
    18:00Ясно и безоблачно+26°C30 %744 мм1.4 м/с2 %
    21:00Ясно и безоблачно+20°C41 %745 мм0.6 м/с2 %
  • 31мая
    Пятница
    +15°
    +30°
    Ясно и безоблачно
    ВремяПогодаТемператураВлажностьДавлениеВетер, м/сВероятность осадков
    00:00Ясно и безоблачно+17°C44 %745 мм0.7 м/с2 %
    03:00Ясно и безоблачно+16°C53 %745 мм0.6 м/с3 %
    06:00Ясно и безоблачно+18°C55 %745 мм0.6 м/с5 %
    09:00Ясно и безоблачно+25°C44 %746 мм1.6 м/с4 %
    12:00Ясно и безоблачно+28°C30 %746 мм1.9 м/с3 %
    15:00Ясно и безоблачно+29°C28 %745 мм1.7 м/с17 %
    18:00Практически безоблачно+28°C32 %745 мм1.2 м/с14 %
    21:00Ясно и безоблачно+22°C46 %746 мм0.5 м/с3 %
Мы используем cookies
Соглашаюсь